Queen Elizabeth — ZCEF2 — position and weather

sailwx.info

Track history (hours):
 
Tides and Currents Weather Stations Pressure Air Temp Water Temp Dewpoint Dewpoint Depression Visibility Wind Speed Wind Dir Waves Ship Positions

Queen Elizabeth

Last reported at 2017-Aug-24 01:00 UTC. Time now 2017-Aug-24 01:11 UTC.
Position N 50°20' W 000°46'.

Length 294 m; draft 8 m.

Type: Passenger vessel. MMSI: 310625000.

Date/timePositionNaut miles runAvg speedWind from/ knotsBaromVisibWave heightAir tempDewpointWater temp
2017-Aug-24 01:00N 50°20' W 000°46'1120.0
2017-Aug-24 00:29N 50°23' W 000°30'919.4
2017-Aug-24 00:01N 50°25' W 000°16'918.6
2017-Aug-23 23:31N 50°27' W 000°02'917.8
2017-Aug-23 23:01N 50°30' E 000°11'917.3
2017-Aug-23 22:29N 50°32' E 000°25'817.0
2017-Aug-23 22:00N 50°35' E 000°37'1017.5
2017-Aug-23 21:26N 50°41' E 000°50'1018.6
2017-Aug-23 20:55N 50°47' E 001°02'819.8
2017-Aug-23 20:30N 50°52' E 001°12'1021.0
2017-Aug-23 20:01N 50°59' E 001°24'1121.4
2017-Aug-23 19:31N 51°07' E 001°36'1020.7
2017-Aug-23 19:01N 51°14' E 001°47'1019.9
2017-Aug-23 18:30N 51°23' E 001°56'816.1
2017-Aug-23 18:01N 51°23' E 002°08'918.1
2017-Aug-23 17:30N 51°22' E 002°23'917.4
2017-Aug-23 17:00N 51°23' E 002°37'612.2
2017-Aug-23 16:31N 51°22' E 002°46'917.5
2017-Aug-23 16:01N 51°24' E 002°60'815.1
2017-Aug-23 15:30N 51°22' E 003°12'2 2.9
2017-Aug-23 14:58N 51°20' E 003°13'0 0.0
2017-Aug-23 14:28N 51°20' E 003°13'0 0.0
2017-Aug-23 13:28N 51°20' E 003°13'0 0.0
2017-Aug-23 12:58N 51°20' E 003°13'0 0.0
2017-Aug-23 12:19N 51°20' E 003°13'0 0.0
2017-Aug-23 11:58N 51°20' E 003°13'0 0.0
2017-Aug-23 11:28N 51°20' E 003°13'0 0.0
2017-Aug-23 10:58N 51°20' E 003°13'0 0.0
2017-Aug-23 10:28N 51°20' E 003°13'0 0.0
2017-Aug-23 09:58N 51°20' E 003°13'0 0.0
2017-Aug-23 09:28N 51°20' E 003°13'0 0.0
2017-Aug-23 08:58N 51°20' E 003°13'0 0.0
2017-Aug-23 08:28N 51°20' E 003°13'0 0.0
2017-Aug-23 07:58N 51°20' E 003°13'0 0.0
2017-Aug-23 07:28N 51°20' E 003°13'0 0.0
2017-Aug-23 06:58N 51°20' E 003°13'0 0.0
2017-Aug-23 06:28N 51°20' E 003°13'0 0.0
2017-Aug-23 05:58N 51°20' E 003°13'0 0.0
2017-Aug-23 05:30N 51°20' E 003°13'0 0.4
2017-Aug-23 05:00N 51°21' E 003°12'5 9.6
2017-Aug-23 04:30N 51°24' E 003°07'917.3
2017-Aug-23 04:00N 51°22' E 002°54'713.0
2017-Aug-23 03:30N 51°22' E 002°43'611.6
2017-Aug-23 03:00N 51°22' E 002°34'714.3
2017-Aug-23 02:30N 51°20' E 002°23'815.4
2017-Aug-23 02:00N 51°19' E 002°11'816.0
2017-Aug-23 01:30N 51°23' E 001°59'713.5
2017-Aug-23 01:00N 51°29' E 002°04'815.3
2017-Aug-23 00:30N 51°35' E 002°12'815.7
2017-Aug-23 00:00N 51°40' E 002°21'816.4
2017-Aug-22 23:30N 51°47' E 002°29'917.2
2017-Aug-22 23:00N 51°54' E 002°38'917.6
2017-Aug-22 22:30N 51°60' E 002°48'713.8
2017-Aug-22 22:00N 52°03' E 002°57'816.8
2017-Aug-22 21:30N 52°04' E 003°11'917.1
2017-Aug-22 21:00N 52°04' E 003°25'917.3
2017-Aug-22 20:30N 52°04' E 003°39'815.3
2017-Aug-22 20:00N 52°03' E 003°51'510.1
2017-Aug-22 19:30N 52°01' E 003°59'612.8
2017-Aug-22 19:00N 51°58' E 004°08'511.0
2017-Aug-22 18:31N 51°55' E 004°15'4 8.8
2017-Aug-22 18:01N 51°54' E 004°22'4 4.2
2017-Aug-22 17:01N 51°54' E 004°29'0 0.4
2017-Aug-22 16:30N 51°54' E 004°29'0 0.0
2017-Aug-22 16:00N 51°54' E 004°29'0 0.0
2017-Aug-22 15:30N 51°54' E 004°29'0 0.0
2017-Aug-22 15:00N 51°54' E 004°29'0 0.0
2017-Aug-22 14:30N 51°54' E 004°29'0 0.0
2017-Aug-22 13:59N 51°54' E 004°29'0 0.0
2017-Aug-22 13:30N 51°54' E 004°29'0 0.0
2017-Aug-22 13:00N 51°54' E 004°29'0 0.0
2017-Aug-22 12:30N 51°54' E 004°29'0 0.0
2017-Aug-22 12:00N 51°54' E 004°29'0 0.0
2017-Aug-22 11:30N 51°54' E 004°29'0 0.0
2017-Aug-22 10:59N 51°54' E 004°29'0 0.0
2017-Aug-22 10:30N 51°54' E 004°29'0 0.0
2017-Aug-22 10:00N 51°54' E 004°29'0 0.0
2017-Aug-22 09:30N 51°54' E 004°29'0 0.0
2017-Aug-22 09:00N 51°54' E 004°29'0 0.0
2017-Aug-22 08:30N 51°54' E 004°29'0 0.0
2017-Aug-22 08:00N 51°54' E 004°29'0 0.0
2017-Aug-22 07:30N 51°54' E 004°29'0 0.0
2017-Aug-22 07:00N 51°54' E 004°29'0 0.0
2017-Aug-22 06:30N 51°54' E 004°29'0 0.0
2017-Aug-22 06:00N 51°54' E 004°29'0 0.0
2017-Aug-22 05:30N 51°54' E 004°29'0 0.0
2017-Aug-22 05:00N 51°54' E 004°29'0 0.0
2017-Aug-22 04:30N 51°54' E 004°29'2 3.9
2017-Aug-22 04:00N 51°54' E 004°26'4 7.3
2017-Aug-22 03:30N 51°54' E 004°20'4 8.2
2017-Aug-22 03:00N 51°55' E 004°14'5 9.1
2017-Aug-22 02:30N 51°58' E 004°08'4 8.3
2017-Aug-22 02:00N 51°60' E 004°02'4 8.9
2017-Aug-22 01:30N 52°00' E 003°55'5 9.1
2017-Aug-22 01:00N 51°60' E 003°47'5 9.5
2017-Aug-22 00:30N 51°58' E 003°40'611.5
2017-Aug-22 00:01N 51°56' E 003°32'611.8
2017-Aug-21 23:30N 51°55' E 003°22'610.8
2017-Aug-21 22:56N 51°53' E 003°13'511.1
2017-Aug-21 22:26N 51°51' E 003°04'611.1
2017-Aug-21 21:53N 51°49' E 002°55'510.9
2017-Aug-21 21:23N 51°48' E 002°46'410.7
2017-Aug-21 21:00N 51°46' E 002°40'610.5
2017-Aug-21 20:26N 51°42' E 002°33'410.4
2017-Aug-21 20:00N 51°39' E 002°28'510.5
2017-Aug-21 19:31N 51°35' E 002°22'510.6
2017-Aug-21 19:01N 51°31' E 002°17'510.4
2017-Aug-21 18:30N 51°27' E 002°11'510.5
2017-Aug-21 18:00N 51°23' E 002°06'611.8
2017-Aug-21 17:30N 51°17' E 002°07'510.2
2017-Aug-21 17:01N 51°13' E 002°02'611.1
2017-Aug-21 16:30N 51°10' E 001°54'510.4
2017-Aug-21 16:00N 51°07' E 001°47'510.7
2017-Aug-21 15:31N 51°04' E 001°41'611.2
2017-Aug-21 15:00N 50°60' E 001°35'611.5
2017-Aug-21 14:30N 50°55' E 001°29'1012.2
2017-Aug-21 13:41N 50°46' E 001°23'312.5
2017-Aug-21 13:27N 50°43' E 001°21'712.0
2017-Aug-21 12:53N 50°39' E 001°14'712.2
2017-Aug-21 12:20N 50°34' E 001°06'611.8
2017-Aug-21 11:48N 50°31' E 000°57'311.8
2017-Aug-21 11:30N 50°30' E 000°52'611.9
2017-Aug-21 11:00N 50°28' E 000°43'712.1
2017-Aug-21 10:26N 50°26' E 000°33'512.0
2017-Aug-21 10:00N 50°25' E 000°25'612.4
2017-Aug-21 09:31N 50°24' E 000°16'713.4
2017-Aug-21 09:01N 50°22' E 000°06'713.9
2017-Aug-21 08:31N 50°19' W 000°05'714.1
2017-Aug-21 08:00N 50°17' W 000°15'714.6
2017-Aug-21 07:30N 50°15' W 000°26'714.6
2017-Aug-21 07:00N 50°12' W 000°37'7712.1
2017-Aug-21 07:00N 50°06' W 000°36'918.0 270 / 181021.8 2.2 17.017.019.0
2017-Aug-21 06:30N 50°10' W 000°48'714.2
2017-Aug-21 06:00N 50°08' W 000°58'713.6
2017-Aug-21 05:30N 50°06' W 001°09'612.8
2017-Aug-21 05:00N 50°05' W 001°18'713.3
2017-Aug-21 04:30N 50°03' W 001°28'612.5
2017-Aug-21 04:00N 50°01' W 001°37'611.5
2017-Aug-21 03:30N 50°01' W 001°46'511.0
2017-Aug-21 03:01N 50°05' W 001°52'611.2
2017-Aug-21 02:30N 50°10' W 001°56'611.6
2017-Aug-21 02:01N 50°15' W 001°59'510.2
2017-Aug-21 01:28N 50°21' W 001°59'613.5
2017-Aug-21 01:00N 50°22' W 001°50'713.4
2017-Aug-21 00:31N 50°24' W 001°40'612.9
2017-Aug-21 00:00N 50°26' W 001°30'612.6
2017-Aug-20 23:30N 50°28' W 001°21'612.8
2017-Aug-20 23:00N 50°30' W 001°11'612.9
2017-Aug-20 22:30N 50°32' W 001°02'612.3
2017-Aug-20 22:00N 50°38' W 000°59'510.4
2017-Aug-20 21:30N 50°43' W 001°01'714.8
2017-Aug-20 21:00N 50°46' W 001°12'510.3
2017-Aug-20 20:30N 50°49' W 001°18'5 9.4
2017-Aug-20 20:00N 50°52' W 001°23'1 1.4
2017-Aug-20 19:23N 50°53' W 001°24'0 0.0
2017-Aug-20 18:59N 50°53' W 001°24'0 0.0
2017-Aug-20 18:29N 50°53' W 001°24'0 0.0
2017-Aug-20 17:53N 50°53' W 001°24'0 0.0
2017-Aug-20 17:26N 50°53' W 001°24'0 0.0
2017-Aug-20 16:56N 50°53' W 001°24'0 0.0
2017-Aug-20 16:26N 50°53' W 001°24'0 0.0
2017-Aug-20 15:56N 50°53' W 001°24'0 0.0
2017-Aug-20 15:29N 50°53' W 001°24'0 0.0
2017-Aug-20 14:56N 50°53' W 001°24'0 0.0
2017-Aug-20 14:29N 50°53' W 001°24'0 0.0
2017-Aug-20 13:59N 50°53' W 001°24'0 0.0
2017-Aug-20 13:26N 50°53' W 001°24'0 0.0
2017-Aug-20 12:59N 50°53' W 001°24'0 0.0
2017-Aug-20 12:29N 50°53' W 001°24'0 0.0
2017-Aug-20 11:53N 50°53' W 001°24'0 0.0
2017-Aug-20 11:29N 50°53' W 001°24'0 0.0
2017-Aug-20 10:59N 50°53' W 001°24'0 0.0
2017-Aug-20 10:23N 50°53' W 001°24'0 0.0
2017-Aug-20 09:59N 50°53' W 001°24'0 0.0
2017-Aug-20 09:29N 50°53' W 001°24'0 0.0
2017-Aug-20 08:59N 50°53' W 001°24'0 0.0
2017-Aug-20 08:29N 50°53' W 001°24'0 0.0
2017-Aug-20 07:59N 50°53' W 001°24'0 0.0
2017-Aug-20 07:29N 50°53' W 001°24'0 0.0
2017-Aug-20 06:59N 50°53' W 001°24'0 0.0
2017-Aug-20 06:29N 50°53' W 001°24'0 0.0
2017-Aug-20 05:59N 50°53' W 001°24'0 0.9
2017-Aug-20 05:31N 50°53' W 001°24'5 9.3
2017-Aug-20 05:00N 50°49' W 001°18'4 8.1
2017-Aug-20 04:31N 50°46' W 001°15'917.4
2017-Aug-20 04:01N 50°43' W 001°02'612.1
2017-Aug-20 03:31N 50°39' W 000°55'713.9
2017-Aug-20 03:01N 50°36' W 000°45'816.8
2017-Aug-20 02:30N 50°35' W 000°32'1121.1
2017-Aug-20 02:01N 50°33' W 000°16'1121.2
2017-Aug-20 01:30N 50°32' E 000°01'1121.6
2017-Aug-20 01:01N 50°34' E 000°17'1121.3
2017-Aug-20 00:30N 50°37' E 000°33'1020.7
2017-Aug-20 00:01N 50°42' E 000°48'1119.8
2017-Aug-19 23:27N 50°48' E 001°02'819.1
2017-Aug-19 23:01N 50°53' E 001°13'917.5
2017-Aug-19 22:30N 50°59' E 001°23'917.2
2017-Aug-19 22:00N 51°05' E 001°32'917.1
2017-Aug-19 21:31N 51°11' E 001°43'918.0
2017-Aug-19 21:00N 51°18' E 001°52'1019.4
2017-Aug-19 20:31N 51°26' E 001°60'1020.2
2017-Aug-19 20:00N 51°34' E 002°10'1020.7
2017-Aug-19 19:31N 51°41' E 002°22'1121.1
2017-Aug-19 19:00N 51°49' E 002°34'10220.3
2017-Aug-19 14:00N 53°30' E 002°54'7518.8 260 / 351013.810.8 17.0 9.418.0
2017-Aug-19 10:00N 54°42' E 003°30'7218.0 270 / 371005.227.0 16.2 9.317.0
2017-Aug-19 06:00N 55°54' E 003°36'9619.2 230 / 301003.7 5.4 15.011.317.0
2017-Aug-19 01:00N 57°30' E 003°48'18620.6 180 / 351000.2 5.4 14.0 8.016.0
2017-Aug-18 15:59N 60°35' E 004°22'919.7
2017-Aug-18 15:30N 60°43' E 004°34'815.4
2017-Aug-18 15:00N 60°42' E 004°49'714.9
2017-Aug-18 14:30N 60°36' E 004°54'1514.8
2017-Aug-18 13:30N 60°23' E 005°12'3 6.5
2017-Aug-18 13:00N 60°24' E 005°18'0 0.3
2017-Aug-18 12:26N 60°23' E 005°19'0 0.0
2017-Aug-18 11:56N 60°23' E 005°19'0 0.0
2017-Aug-18 11:26N 60°23' E 005°19'0 0.0
2017-Aug-18 10:56N 60°23' E 005°19'0 0.0
2017-Aug-18 10:26N 60°23' E 005°19'0 0.0
2017-Aug-18 09:56N 60°23' E 005°19'0 0.0
2017-Aug-18 09:26N 60°23' E 005°19'0 0.0
2017-Aug-18 08:56N 60°23' E 005°19'0 0.0
2017-Aug-18 08:26N 60°23' E 005°19'0 0.0
2017-Aug-18 07:56N 60°23' E 005°19'0 0.0
2017-Aug-18 07:26N 60°23' E 005°19'0 0.0
2017-Aug-18 06:56N 60°23' E 005°19'0 0.0
2017-Aug-18 06:26N 60°23' E 005°19'0 0.0
2017-Aug-18 05:56N 60°23' E 005°19'0 0.1
2017-Aug-18 05:30N 60°23' E 005°18'3 6.4
2017-Aug-18 05:00N 60°23' E 005°12'612.1
2017-Aug-18 04:30N 60°27' E 005°01'816.6
2017-Aug-18 04:00N 60°34' E 004°55'916.7
2017-Aug-18 03:30N 60°42' E 004°49'816.6
2017-Aug-18 03:00N 60°50' E 004°42'815.4
2017-Aug-18 02:30N 60°53' E 004°27'816.6
2017-Aug-18 02:00N 61°01' E 004°23'917.6
2017-Aug-18 01:30N 61°10' E 004°20'917.7
2017-Aug-18 01:00N 61°18' E 004°20'917.5
2017-Aug-18 00:30N 61°27' E 004°20'4117.9
2017-Aug-17 22:12N 62°08' E 004°28'417.9
2017-Aug-17 21:59N 62°12' E 004°31'1717.9
2017-Aug-17 21:04N 62°25' E 004°52'119.5
2017-Aug-17 21:00N 62°25' E 004°54'1019.5
2017-Aug-17 20:30N 62°29' E 005°14'1019.4
2017-Aug-17 20:00N 62°32' E 005°34'917.9
2017-Aug-17 19:30N 62°28' E 005°51'6 8.6
2017-Aug-17 18:49N 62°25' E 006°03'2 5.6
2017-Aug-17 18:30N 62°24' E 006°05'918.5
2017-Aug-17 18:00N 62°25' E 006°24'1019.9
2017-Aug-17 17:30N 62°27' E 006°45'817.2
2017-Aug-17 17:00N 62°21' E 006°56'917.2
2017-Aug-17 16:30N 62°12' E 007°02'713.3
2017-Aug-17 16:00N 62°06' E 007°02'5 9.4
2017-Aug-17 15:30N 62°06' E 007°12'0 0.1
2017-Aug-17 14:58N 62°06' E 007°12'0 0.0
2017-Aug-17 14:28N 62°06' E 007°12'0 0.0
2017-Aug-17 13:58N 62°06' E 007°12'0 0.0
2017-Aug-17 13:28N 62°06' E 007°12'0 0.0
2017-Aug-17 12:58N 62°06' E 007°12'0 0.0
2017-Aug-17 12:28N 62°06' E 007°12'0 0.0
2017-Aug-17 11:58N 62°06' E 007°12'0 0.0
2017-Aug-17 11:28N 62°06' E 007°12'0 0.0
2017-Aug-17 10:58N 62°06' E 007°12'0 0.0
2017-Aug-17 10:28N 62°06' E 007°12'0 0.0
2017-Aug-17 09:58N 62°06' E 007°12'0 0.0
2017-Aug-17 09:28N 62°06' E 007°12'0 0.0
2017-Aug-17 08:58N 62°06' E 007°12'0 0.0
2017-Aug-17 08:28N 62°06' E 007°12'0 0.0
2017-Aug-17 07:58N 62°06' E 007°12'0 0.0
2017-Aug-17 07:28N 62°06' E 007°12'0 0.0
2017-Aug-17 06:58N 62°06' E 007°12'0 0.0
2017-Aug-17 06:30N 62°06' E 007°12'0 0.0
2017-Aug-17 05:59N 62°06' E 007°12'0 0.6
2017-Aug-17 05:30N 62°06' E 007°11'5 9.2
2017-Aug-17 05:00N 62°05' E 007°02'611.6
2017-Aug-17 04:30N 62°11' E 007°01'815.7
2017-Aug-17 04:00N 62°19' E 006°58'816.5
2017-Aug-17 03:30N 62°26' E 006°50'918.3
2017-Aug-17 02:59N 62°25' E 006°30'919.6
2017-Aug-17 02:30N 62°23' E 006°11'1018.9
2017-Aug-17 02:00N 62°28' E 005°52'918.2
2017-Aug-17 01:30N 62°30' E 005°34'1020.7
2017-Aug-17 01:00N 62°24' E 005°16'1121.0
2017-Aug-17 00:30N 62°17' E 005°00'1020.8
2017-Aug-17 00:00N 62°08' E 004°48'1020.6
2017-Aug-16 23:30N 61°58' E 004°40'1020.9
2017-Aug-16 23:00N 61°49' E 004°31'1020.7
2017-Aug-16 22:30N 61°39' E 004°24'1020.5
2017-Aug-16 22:00N 61°29' E 004°22'1020.6
2017-Aug-16 21:30N 61°19' E 004°27'918.0
2017-Aug-16 21:00N 61°15' E 004°44'917.3
2017-Aug-16 20:30N 61°12' E 005°01'612.5
2017-Aug-16 20:00N 61°07' E 005°09'918.9
2017-Aug-16 19:30N 61°04' E 005°28'1019.3
2017-Aug-16 19:00N 61°08' E 005°46'1019.2
2017-Aug-16 18:30N 61°08' E 006°06'1019.2
2017-Aug-16 18:00N 61°06' E 006°26'816.2
2017-Aug-16 17:30N 61°11' E 006°39'918.6
2017-Aug-16 17:00N 61°07' E 006°56'918.2
2017-Aug-16 16:30N 60°58' E 007°05'611.8
2017-Aug-16 16:00N 60°53' E 007°09'1 2.7
2017-Aug-16 15:30N 60°52' E 007°07'0 0.0
2017-Aug-16 15:00N 60°52' E 007°07'0 0.0
2017-Aug-16 14:30N 60°52' E 007°07'0 0.0
2017-Aug-16 14:00N 60°52' E 007°07'0 0.0
2017-Aug-16 13:30N 60°52' E 007°07'0 0.0
2017-Aug-16 13:00N 60°52' E 007°07'0 0.0
2017-Aug-16 12:30N 60°52' E 007°07'0 0.0
2017-Aug-16 12:00N 60°52' E 007°07'0 0.0
2017-Aug-16 11:30N 60°52' E 007°07'0 0.0
2017-Aug-16 11:00N 60°52' E 007°07'0 0.0
2017-Aug-16 10:30N 60°52' E 007°07'0 0.0
2017-Aug-16 10:00N 60°52' E 007°07'0 0.0
2017-Aug-16 09:30N 60°52' E 007°07'0 0.0
2017-Aug-16 09:00N 60°52' E 007°07'0 0.0
2017-Aug-16 08:30N 60°52' E 007°07'0 0.0
2017-Aug-16 08:00N 60°52' E 007°07'0 0.0
2017-Aug-16 07:02N 60°52' E 007°07'0 0.0
2017-Aug-16 06:59N 60°52' E 007°07'0 0.0
2017-Aug-16 06:29N 60°52' E 007°07'0 0.0
2017-Aug-16 05:59N 60°52' E 007°07'0 0.1
2017-Aug-16 05:29N 60°52' E 007°07'1 2.5
2017-Aug-16 05:00N 60°53' E 007°08'4 7.9
2017-Aug-16 04:30N 60°57' E 007°09'611.4
2017-Aug-16 04:00N 61°01' E 007°02'611.9
2017-Aug-16 03:30N 61°06' E 006°56'612.5
2017-Aug-16 03:00N 61°10' E 006°46'611.5
2017-Aug-16 02:30N 61°09' E 006°34'714.4
2017-Aug-16 02:00N 61°06' E 006°20'916.7
2017-Aug-16 01:30N 61°08' E 006°03'816.8
2017-Aug-16 01:00N 61°08' E 005°46'816.3
2017-Aug-16 00:30N 61°05' E 005°30'815.3
2017-Aug-16 00:00N 61°05' E 005°14'815.8
2017-Aug-15 23:30N 61°03' E 004°58'917.3
2017-Aug-15 23:00N 60°58' E 004°44'816.3
2017-Aug-15 22:30N 60°51' E 004°36'815.3
2017-Aug-15 22:00N 60°45' E 004°26'1019.0
2017-Aug-15 21:30N 60°36' E 004°25'918.9
2017-Aug-15 21:00N 60°26' E 004°25'3619.4
2017-Aug-15 19:08N 59°50' E 004°32'719.3
2017-Aug-15 18:47N 59°44' E 004°34'3019.2
2017-Aug-15 17:14N 59°14' E 004°42'419.3
2017-Aug-15 17:00N 59°11' E 004°48'918.9
2017-Aug-15 16:30N 59°06' E 005°04'918.3
2017-Aug-15 16:00N 59°07' E 005°22'715.0
2017-Aug-15 15:30N 59°03' E 005°35'612.7
2017-Aug-15 15:00N 58°59' E 005°43'0 0.7
2017-Aug-15 14:30N 58°58' E 005°44'0 0.0
2017-Aug-15 08:51N 58°58' E 005°44'0 0.0
2017-Aug-15 08:30N 58°58' E 005°44'0 0.0
2017-Aug-15 08:00N 58°58' E 005°44'0 0.0
2017-Aug-15 07:30N 58°58' E 005°44'0 0.0
2017-Aug-15 07:00N 58°58' E 005°44'0 0.0
2017-Aug-15 06:30N 58°58' E 005°44'0 0.0
2017-Aug-15 06:00N 58°58' E 005°44'0 0.0
2017-Aug-15 05:30N 58°59' E 005°44'0 0.5
2017-Aug-15 05:00N 58°59' E 005°43'4 8.1
2017-Aug-15 04:30N 59°02' E 005°38'4 8.5
2017-Aug-15 04:00N 58°58' E 005°33'714.0
2017-Aug-15 03:30N 58°51' E 005°31'4 8.3
2017-Aug-15 03:00N 58°49' E 005°25'611.3
2017-Aug-15 02:30N 58°44' E 005°19'612.7
2017-Aug-15 02:00N 58°38' E 005°15'713.2
2017-Aug-15 01:30N 58°31' E 005°12'713.2
2017-Aug-15 01:00N 58°25' E 005°08'713.6
2017-Aug-15 00:30N 58°19' E 005°04'15213.2
2017-Aug-14 13:00N 55°48' E 004°24'10214.6 160 / 201019.510.8 19.011.817.0
2017-Aug-14 06:00N 54°06' E 004°36'2912.7 150 / 241021.6 5.4 17.011.518.0
2017-Aug-14 03:42N 53°38' E 004°48'313.5
2017-Aug-14 03:30N 53°35' E 004°48'714.1
2017-Aug-14 03:00N 53°29' E 004°43'714.1
2017-Aug-14 02:30N 53°22' E 004°39'714.1
2017-Aug-14 02:00N 53°16' E 004°34'714.2
2017-Aug-14 01:30N 53°09' E 004°29'714.1
2017-Aug-14 01:00N 53°03' E 004°24'  
Track history (hours):
 
Tides and Currents Weather Stations Pressure Air Temp Water Temp Dewpoint Dewpoint Depression Visibility Wind Speed Wind Dir Waves Ship Positions

Queen Elizabeth

Last reported at 2017-Aug-24 01:00 UTC. Time now 2017-Aug-24 01:11 UTC.
Position N 50°20' W 000°46'.

Length 294 m; draft 8 m.

Type: Passenger vessel. MMSI: 310625000.

Date/timePositionNaut miles runAvg speedWind from/ knotsBaromVisibWave heightAir tempDewpointWater temp
2017-Aug-24 01:00N 50°20' W 000°46'1120.0
2017-Aug-24 00:29N 50°23' W 000°30'919.4
2017-Aug-24 00:01N 50°25' W 000°16'918.6
2017-Aug-23 23:31N 50°27' W 000°02'917.8
2017-Aug-23 23:01N 50°30' E 000°11'917.3
2017-Aug-23 22:29N 50°32' E 000°25'817.0
2017-Aug-23 22:00N 50°35' E 000°37'1017.5
2017-Aug-23 21:26N 50°41' E 000°50'1018.6
2017-Aug-23 20:55N 50°47' E 001°02'819.8
2017-Aug-23 20:30N 50°52' E 001°12'1021.0
2017-Aug-23 20:01N 50°59' E 001°24'1121.4
2017-Aug-23 19:31N 51°07' E 001°36'1020.7
2017-Aug-23 19:01N 51°14' E 001°47'1019.9
2017-Aug-23 18:30N 51°23' E 001°56'816.1
2017-Aug-23 18:01N 51°23' E 002°08'918.1
2017-Aug-23 17:30N 51°22' E 002°23'917.4
2017-Aug-23 17:00N 51°23' E 002°37'612.2
2017-Aug-23 16:31N 51°22' E 002°46'917.5
2017-Aug-23 16:01N 51°24' E 002°60'815.1
2017-Aug-23 15:30N 51°22' E 003°12'2 2.9
2017-Aug-23 14:58N 51°20' E 003°13'0 0.0
2017-Aug-23 14:28N 51°20' E 003°13'0 0.0
2017-Aug-23 13:28N 51°20' E 003°13'0 0.0
2017-Aug-23 12:58N 51°20' E 003°13'0 0.0
2017-Aug-23 12:19N 51°20' E 003°13'0 0.0
2017-Aug-23 11:58N 51°20' E 003°13'0 0.0
2017-Aug-23 11:28N 51°20' E 003°13'0 0.0
2017-Aug-23 10:58N 51°20' E 003°13'0 0.0
2017-Aug-23 10:28N 51°20' E 003°13'0 0.0
2017-Aug-23 09:58N 51°20' E 003°13'0 0.0
2017-Aug-23 09:28N 51°20' E 003°13'0 0.0
2017-Aug-23 08:58N 51°20' E 003°13'0 0.0
2017-Aug-23 08:28N 51°20' E 003°13'0 0.0
2017-Aug-23 07:58N 51°20' E 003°13'0 0.0
2017-Aug-23 07:28N 51°20' E 003°13'0 0.0
2017-Aug-23 06:58N 51°20' E 003°13'0 0.0
2017-Aug-23 06:28N 51°20' E 003°13'0 0.0
2017-Aug-23 05:58N 51°20' E 003°13'0 0.0
2017-Aug-23 05:30N 51°20' E 003°13'0 0.4
2017-Aug-23 05:00N 51°21' E 003°12'5 9.6
2017-Aug-23 04:30N 51°24' E 003°07'917.3
2017-Aug-23 04:00N 51°22' E 002°54'713.0
2017-Aug-23 03:30N 51°22' E 002°43'611.6
2017-Aug-23 03:00N 51°22' E 002°34'714.3
2017-Aug-23 02:30N 51°20' E 002°23'815.4
2017-Aug-23 02:00N 51°19' E 002°11'816.0
2017-Aug-23 01:30N 51°23' E 001°59'713.5
2017-Aug-23 01:00N 51°29' E 002°04'815.3
2017-Aug-23 00:30N 51°35' E 002°12'815.7
2017-Aug-23 00:00N 51°40' E 002°21'816.4
2017-Aug-22 23:30N 51°47' E 002°29'917.2
2017-Aug-22 23:00N 51°54' E 002°38'917.6
2017-Aug-22 22:30N 51°60' E 002°48'713.8
2017-Aug-22 22:00N 52°03' E 002°57'816.8
2017-Aug-22 21:30N 52°04' E 003°11'917.1
2017-Aug-22 21:00N 52°04' E 003°25'917.3
2017-Aug-22 20:30N 52°04' E 003°39'815.3
2017-Aug-22 20:00N 52°03' E 003°51'510.1
2017-Aug-22 19:30N 52°01' E 003°59'612.8
2017-Aug-22 19:00N 51°58' E 004°08'511.0
2017-Aug-22 18:31N 51°55' E 004°15'4 8.8
2017-Aug-22 18:01N 51°54' E 004°22'4 4.2
2017-Aug-22 17:01N 51°54' E 004°29'0 0.4
2017-Aug-22 16:30N 51°54' E 004°29'0 0.0
2017-Aug-22 16:00N 51°54' E 004°29'0 0.0
2017-Aug-22 15:30N 51°54' E 004°29'0 0.0
2017-Aug-22 15:00N 51°54' E 004°29'0 0.0
2017-Aug-22 14:30N 51°54' E 004°29'0 0.0
2017-Aug-22 13:59N 51°54' E 004°29'0 0.0
2017-Aug-22 13:30N 51°54' E 004°29'0 0.0
2017-Aug-22 13:00N 51°54' E 004°29'0 0.0
2017-Aug-22 12:30N 51°54' E 004°29'0 0.0
2017-Aug-22 12:00N 51°54' E 004°29'0 0.0
2017-Aug-22 11:30N 51°54' E 004°29'0 0.0
2017-Aug-22 10:59N 51°54' E 004°29'0 0.0
2017-Aug-22 10:30N 51°54' E 004°29'0 0.0
2017-Aug-22 10:00N 51°54' E 004°29'0 0.0
2017-Aug-22 09:30N 51°54' E 004°29'0 0.0
2017-Aug-22 09:00N 51°54' E 004°29'0 0.0
2017-Aug-22 08:30N 51°54' E 004°29'0 0.0
2017-Aug-22 08:00N 51°54' E 004°29'0 0.0
2017-Aug-22 07:30N 51°54' E 004°29'0 0.0
2017-Aug-22 07:00N 51°54' E 004°29'0 0.0
2017-Aug-22 06:30N 51°54' E 004°29'0 0.0
2017-Aug-22 06:00N 51°54' E 004°29'0 0.0
2017-Aug-22 05:30N 51°54' E 004°29'0 0.0
2017-Aug-22 05:00N 51°54' E 004°29'0 0.0
2017-Aug-22 04:30N 51°54' E 004°29'2 3.9
2017-Aug-22 04:00N 51°54' E 004°26'4 7.3
2017-Aug-22 03:30N 51°54' E 004°20'4 8.2
2017-Aug-22 03:00N 51°55' E 004°14'5 9.1
2017-Aug-22 02:30N 51°58' E 004°08'4 8.3
2017-Aug-22 02:00N 51°60' E 004°02'4 8.9
2017-Aug-22 01:30N 52°00' E 003°55'5 9.1
2017-Aug-22 01:00N 51°60' E 003°47'5 9.5
2017-Aug-22 00:30N 51°58' E 003°40'611.5
2017-Aug-22 00:01N 51°56' E 003°32'611.8
2017-Aug-21 23:30N 51°55' E 003°22'610.8
2017-Aug-21 22:56N 51°53' E 003°13'511.1
2017-Aug-21 22:26N 51°51' E 003°04'611.1
2017-Aug-21 21:53N 51°49' E 002°55'510.9
2017-Aug-21 21:23N 51°48' E 002°46'410.7
2017-Aug-21 21:00N 51°46' E 002°40'610.5
2017-Aug-21 20:26N 51°42' E 002°33'410.4
2017-Aug-21 20:00N 51°39' E 002°28'510.5
2017-Aug-21 19:31N 51°35' E 002°22'510.6
2017-Aug-21 19:01N 51°31' E 002°17'510.4
2017-Aug-21 18:30N 51°27' E 002°11'510.5
2017-Aug-21 18:00N 51°23' E 002°06'611.8
2017-Aug-21 17:30N 51°17' E 002°07'510.2
2017-Aug-21 17:01N 51°13' E 002°02'611.1
2017-Aug-21 16:30N 51°10' E 001°54'510.4
2017-Aug-21 16:00N 51°07' E 001°47'510.7
2017-Aug-21 15:31N 51°04' E 001°41'611.2
2017-Aug-21 15:00N 50°60' E 001°35'611.5
2017-Aug-21 14:30N 50°55' E 001°29'1012.2
2017-Aug-21 13:41N 50°46' E 001°23'312.5
2017-Aug-21 13:27N 50°43' E 001°21'712.0
2017-Aug-21 12:53N 50°39' E 001°14'712.2
2017-Aug-21 12:20N 50°34' E 001°06'611.8
2017-Aug-21 11:48N 50°31' E 000°57'311.8
2017-Aug-21 11:30N 50°30' E 000°52'611.9
2017-Aug-21 11:00N 50°28' E 000°43'712.1
2017-Aug-21 10:26N 50°26' E 000°33'512.0
2017-Aug-21 10:00N 50°25' E 000°25'612.4
2017-Aug-21 09:31N 50°24' E 000°16'713.4
2017-Aug-21 09:01N 50°22' E 000°06'713.9
2017-Aug-21 08:31N 50°19' W 000°05'714.1
2017-Aug-21 08:00N 50°17' W 000°15'714.6
2017-Aug-21 07:30N 50°15' W 000°26'714.6
2017-Aug-21 07:00N 50°12' W 000°37'7712.1
2017-Aug-21 07:00N 50°06' W 000°36'918.0 270 / 181021.8 2.2 17.017.019.0
2017-Aug-21 06:30N 50°10' W 000°48'714.2
2017-Aug-21 06:00N 50°08' W 000°58'713.6
2017-Aug-21 05:30N 50°06' W 001°09'612.8
2017-Aug-21 05:00N 50°05' W 001°18'713.3
2017-Aug-21 04:30N 50°03' W 001°28'612.5
2017-Aug-21 04:00N 50°01' W 001°37'611.5
2017-Aug-21 03:30N 50°01' W 001°46'511.0
2017-Aug-21 03:01N 50°05' W 001°52'611.2
2017-Aug-21 02:30N 50°10' W 001°56'611.6
2017-Aug-21 02:01N 50°15' W 001°59'510.2
2017-Aug-21 01:28N 50°21' W 001°59'613.5
2017-Aug-21 01:00N 50°22' W 001°50'713.4
2017-Aug-21 00:31N 50°24' W 001°40'612.9
2017-Aug-21 00:00N 50°26' W 001°30'612.6
2017-Aug-20 23:30N 50°28' W 001°21'612.8
2017-Aug-20 23:00N 50°30' W 001°11'612.9
2017-Aug-20 22:30N 50°32' W 001°02'612.3
2017-Aug-20 22:00N 50°38' W 000°59'510.4
2017-Aug-20 21:30N 50°43' W 001°01'714.8
2017-Aug-20 21:00N 50°46' W 001°12'510.3
2017-Aug-20 20:30N 50°49' W 001°18'5 9.4
2017-Aug-20 20:00N 50°52' W 001°23'1 1.4
2017-Aug-20 19:23N 50°53' W 001°24'0 0.0
2017-Aug-20 18:59N 50°53' W 001°24'0 0.0
2017-Aug-20 18:29N 50°53' W 001°24'0 0.0
2017-Aug-20 17:53N 50°53' W 001°24'0 0.0
2017-Aug-20 17:26N 50°53' W 001°24'0 0.0
2017-Aug-20 16:56N 50°53' W 001°24'0 0.0
2017-Aug-20 16:26N 50°53' W 001°24'0 0.0
2017-Aug-20 15:56N 50°53' W 001°24'0 0.0
2017-Aug-20 15:29N 50°53' W 001°24'0 0.0
2017-Aug-20 14:56N 50°53' W 001°24'0 0.0
2017-Aug-20 14:29N 50°53' W 001°24'0 0.0
2017-Aug-20 13:59N 50°53' W 001°24'0 0.0
2017-Aug-20 13:26N 50°53' W 001°24'0 0.0
2017-Aug-20 12:59N 50°53' W 001°24'0 0.0
2017-Aug-20 12:29N 50°53' W 001°24'0 0.0
2017-Aug-20 11:53N 50°53' W 001°24'0 0.0
2017-Aug-20 11:29N 50°53' W 001°24'0 0.0
2017-Aug-20 10:59N 50°53' W 001°24'0 0.0
2017-Aug-20 10:23N 50°53' W 001°24'0 0.0
2017-Aug-20 09:59N 50°53' W 001°24'0 0.0
2017-Aug-20 09:29N 50°53' W 001°24'0 0.0
2017-Aug-20 08:59N 50°53' W 001°24'0 0.0
2017-Aug-20 08:29N 50°53' W 001°24'0 0.0
2017-Aug-20 07:59N 50°53' W 001°24'0 0.0
2017-Aug-20 07:29N 50°53' W 001°24'0 0.0
2017-Aug-20 06:59N 50°53' W 001°24'0 0.0
2017-Aug-20 06:29N 50°53' W 001°24'0 0.0
2017-Aug-20 05:59N 50°53' W 001°24'0 0.9
2017-Aug-20 05:31N 50°53' W 001°24'5 9.3
2017-Aug-20 05:00N 50°49' W 001°18'4 8.1
2017-Aug-20 04:31N 50°46' W 001°15'917.4
2017-Aug-20 04:01N 50°43' W 001°02'612.1
2017-Aug-20 03:31N 50°39' W 000°55'713.9
2017-Aug-20 03:01N 50°36' W 000°45'816.8
2017-Aug-20 02:30N 50°35' W 000°32'1121.1
2017-Aug-20 02:01N 50°33' W 000°16'1121.2
2017-Aug-20 01:30N 50°32' E 000°01'1121.6
2017-Aug-20 01:01N 50°34' E 000°17'1121.3
2017-Aug-20 00:30N 50°37' E 000°33'1020.7
2017-Aug-20 00:01N 50°42' E 000°48'1119.8
2017-Aug-19 23:27N 50°48' E 001°02'819.1
2017-Aug-19 23:01N 50°53' E 001°13'917.5
2017-Aug-19 22:30N 50°59' E 001°23'917.2
2017-Aug-19 22:00N 51°05' E 001°32'917.1
2017-Aug-19 21:31N 51°11' E 001°43'918.0
2017-Aug-19 21:00N 51°18' E 001°52'1019.4
2017-Aug-19 20:31N 51°26' E 001°60'1020.2
2017-Aug-19 20:00N 51°34' E 002°10'1020.7
2017-Aug-19 19:31N 51°41' E 002°22'1121.1
2017-Aug-19 19:00N 51°49' E 002°34'10220.3
2017-Aug-19 14:00N 53°30' E 002°54'7518.8 260 / 351013.810.8 17.0 9.418.0
2017-Aug-19 10:00N 54°42' E 003°30'7218.0 270 / 371005.227.0 16.2 9.317.0
2017-Aug-19 06:00N 55°54' E 003°36'9619.2 230 / 301003.7 5.4 15.011.317.0
2017-Aug-19 01:00N 57°30' E 003°48'18620.6 180 / 351000.2 5.4 14.0 8.016.0
2017-Aug-18 15:59N 60°35' E 004°22'919.7
2017-Aug-18 15:30N 60°43' E 004°34'815.4
2017-Aug-18 15:00N 60°42' E 004°49'714.9
2017-Aug-18 14:30N 60°36' E 004°54'1514.8
2017-Aug-18 13:30N 60°23' E 005°12'3 6.5
2017-Aug-18 13:00N 60°24' E 005°18'0 0.3
2017-Aug-18 12:26N 60°23' E 005°19'0 0.0
2017-Aug-18 11:56N 60°23' E 005°19'0 0.0
2017-Aug-18 11:26N 60°23' E 005°19'0 0.0
2017-Aug-18 10:56N 60°23' E 005°19'0 0.0
2017-Aug-18 10:26N 60°23' E 005°19'0 0.0
2017-Aug-18 09:56N 60°23' E 005°19'0 0.0
2017-Aug-18 09:26N 60°23' E 005°19'0 0.0
2017-Aug-18 08:56N 60°23' E 005°19'0 0.0
2017-Aug-18 08:26N 60°23' E 005°19'0 0.0
2017-Aug-18 07:56N 60°23' E 005°19'0 0.0
2017-Aug-18 07:26N 60°23' E 005°19'0 0.0
2017-Aug-18 06:56N 60°23' E 005°19'0 0.0
2017-Aug-18 06:26N 60°23' E 005°19'0 0.0
2017-Aug-18 05:56N 60°23' E 005°19'0 0.1
2017-Aug-18 05:30N 60°23' E 005°18'3 6.4
2017-Aug-18 05:00N 60°23' E 005°12'612.1
2017-Aug-18 04:30N 60°27' E 005°01'816.6
2017-Aug-18 04:00N 60°34' E 004°55'916.7
2017-Aug-18 03:30N 60°42' E 004°49'816.6
2017-Aug-18 03:00N 60°50' E 004°42'815.4
2017-Aug-18 02:30N 60°53' E 004°27'816.6
2017-Aug-18 02:00N 61°01' E 004°23'917.6
2017-Aug-18 01:30N 61°10' E 004°20'917.7
2017-Aug-18 01:00N 61°18' E 004°20'917.5
2017-Aug-18 00:30N 61°27' E 004°20'4117.9
2017-Aug-17 22:12N 62°08' E 004°28'417.9
2017-Aug-17 21:59N 62°12' E 004°31'1717.9
2017-Aug-17 21:04N 62°25' E 004°52'119.5
2017-Aug-17 21:00N 62°25' E 004°54'1019.5
2017-Aug-17 20:30N 62°29' E 005°14'1019.4
2017-Aug-17 20:00N 62°32' E 005°34'917.9
2017-Aug-17 19:30N 62°28' E 005°51'6 8.6
2017-Aug-17 18:49N 62°25' E 006°03'2 5.6
2017-Aug-17 18:30N 62°24' E 006°05'918.5
2017-Aug-17 18:00N 62°25' E 006°24'1019.9
2017-Aug-17 17:30N 62°27' E 006°45'817.2
2017-Aug-17 17:00N 62°21' E 006°56'917.2
2017-Aug-17 16:30N 62°12' E 007°02'713.3
2017-Aug-17 16:00N 62°06' E 007°02'5 9.4
2017-Aug-17 15:30N 62°06' E 007°12'0 0.1
2017-Aug-17 14:58N 62°06' E 007°12'0 0.0
2017-Aug-17 14:28N 62°06' E 007°12'0 0.0
2017-Aug-17 13:58N 62°06' E 007°12'0 0.0
2017-Aug-17 13:28N 62°06' E 007°12'0 0.0
2017-Aug-17 12:58N 62°06' E 007°12'0 0.0
2017-Aug-17 12:28N 62°06' E 007°12'0 0.0
2017-Aug-17 11:58N 62°06' E 007°12'0 0.0
2017-Aug-17 11:28N 62°06' E 007°12'0 0.0
2017-Aug-17 10:58N 62°06' E 007°12'0 0.0
2017-Aug-17 10:28N 62°06' E 007°12'0 0.0
2017-Aug-17 09:58N 62°06' E 007°12'0 0.0
2017-Aug-17 09:28N 62°06' E 007°12'0 0.0
2017-Aug-17 08:58N 62°06' E 007°12'0 0.0
2017-Aug-17 08:28N 62°06' E 007°12'0 0.0
2017-Aug-17 07:58N 62°06' E 007°12'0 0.0
2017-Aug-17 07:28N 62°06' E 007°12'0 0.0
2017-Aug-17 06:58N 62°06' E 007°12'0 0.0
2017-Aug-17 06:30N 62°06' E 007°12'0 0.0
2017-Aug-17 05:59N 62°06' E 007°12'0 0.6
2017-Aug-17 05:30N 62°06' E 007°11'5 9.2
2017-Aug-17 05:00N 62°05' E 007°02'611.6
2017-Aug-17 04:30N 62°11' E 007°01'815.7
2017-Aug-17 04:00N 62°19' E 006°58'816.5
2017-Aug-17 03:30N 62°26' E 006°50'918.3
2017-Aug-17 02:59N 62°25' E 006°30'919.6
2017-Aug-17 02:30N 62°23' E 006°11'1018.9
2017-Aug-17 02:00N 62°28' E 005°52'918.2
2017-Aug-17 01:30N 62°30' E 005°34'1020.7
2017-Aug-17 01:00N 62°24' E 005°16'1121.0
2017-Aug-17 00:30N 62°17' E 005°00'1020.8
2017-Aug-17 00:00N 62°08' E 004°48'1020.6
2017-Aug-16 23:30N 61°58' E 004°40'1020.9
2017-Aug-16 23:00N 61°49' E 004°31'1020.7
2017-Aug-16 22:30N 61°39' E 004°24'1020.5
2017-Aug-16 22:00N 61°29' E 004°22'1020.6
2017-Aug-16 21:30N 61°19' E 004°27'918.0
2017-Aug-16 21:00N 61°15' E 004°44'917.3
2017-Aug-16 20:30N 61°12' E 005°01'612.5
2017-Aug-16 20:00N 61°07' E 005°09'918.9
2017-Aug-16 19:30N 61°04' E 005°28'1019.3
2017-Aug-16 19:00N 61°08' E 005°46'1019.2
2017-Aug-16 18:30N 61°08' E 006°06'1019.2
2017-Aug-16 18:00N 61°06' E 006°26'816.2
2017-Aug-16 17:30N 61°11' E 006°39'918.6
2017-Aug-16 17:00N 61°07' E 006°56'918.2
2017-Aug-16 16:30N 60°58' E 007°05'611.8
2017-Aug-16 16:00N 60°53' E 007°09'1 2.7
2017-Aug-16 15:30N 60°52' E 007°07'0 0.0
2017-Aug-16 15:00N 60°52' E 007°07'0 0.0
2017-Aug-16 14:30N 60°52' E 007°07'0 0.0
2017-Aug-16 14:00N 60°52' E 007°07'0 0.0
2017-Aug-16 13:30N 60°52' E 007°07'0 0.0
2017-Aug-16 13:00N 60°52' E 007°07'0 0.0
2017-Aug-16 12:30N 60°52' E 007°07'0 0.0
2017-Aug-16 12:00N 60°52' E 007°07'0 0.0
2017-Aug-16 11:30N 60°52' E 007°07'0 0.0
2017-Aug-16 11:00N 60°52' E 007°07'0 0.0
2017-Aug-16 10:30N 60°52' E 007°07'0 0.0
2017-Aug-16 10:00N 60°52' E 007°07'0 0.0
2017-Aug-16 09:30N 60°52' E 007°07'0 0.0
2017-Aug-16 09:00N 60°52' E 007°07'0 0.0
2017-Aug-16 08:30N 60°52' E 007°07'0 0.0
2017-Aug-16 08:00N 60°52' E 007°07'0 0.0
2017-Aug-16 07:02N 60°52' E 007°07'0 0.0
2017-Aug-16 06:59N 60°52' E 007°07'0 0.0
2017-Aug-16 06:29N 60°52' E 007°07'0 0.0
2017-Aug-16 05:59N 60°52' E 007°07'0 0.1
2017-Aug-16 05:29N 60°52' E 007°07'1 2.5
2017-Aug-16 05:00N 60°53' E 007°08'4 7.9
2017-Aug-16 04:30N 60°57' E 007°09'611.4
2017-Aug-16 04:00N 61°01' E 007°02'611.9
2017-Aug-16 03:30N 61°06' E 006°56'612.5
2017-Aug-16 03:00N 61°10' E 006°46'611.5
2017-Aug-16 02:30N 61°09' E 006°34'714.4
2017-Aug-16 02:00N 61°06' E 006°20'916.7
2017-Aug-16 01:30N 61°08' E 006°03'816.8
2017-Aug-16 01:00N 61°08' E 005°46'816.3
2017-Aug-16 00:30N 61°05' E 005°30'815.3
2017-Aug-16 00:00N 61°05' E 005°14'815.8
2017-Aug-15 23:30N 61°03' E 004°58'917.3
2017-Aug-15 23:00N 60°58' E 004°44'816.3
2017-Aug-15 22:30N 60°51' E 004°36'815.3
2017-Aug-15 22:00N 60°45' E 004°26'1019.0
2017-Aug-15 21:30N 60°36' E 004°25'918.9
2017-Aug-15 21:00N 60°26' E 004°25'3619.4
2017-Aug-15 19:08N 59°50' E 004°32'719.3
2017-Aug-15 18:47N 59°44' E 004°34'3019.2
2017-Aug-15 17:14N 59°14' E 004°42'419.3
2017-Aug-15 17:00N 59°11' E 004°48'918.9
2017-Aug-15 16:30N 59°06' E 005°04'918.3
2017-Aug-15 16:00N 59°07' E 005°22'715.0
2017-Aug-15 15:30N 59°03' E 005°35'612.7
2017-Aug-15 15:00N 58°59' E 005°43'0 0.7
2017-Aug-15 14:30N 58°58' E 005°44'0 0.0
2017-Aug-15 08:51N 58°58' E 005°44'0 0.0
2017-Aug-15 08:30N 58°58' E 005°44'0 0.0
2017-Aug-15 08:00N 58°58' E 005°44'0 0.0
2017-Aug-15 07:30N 58°58' E 005°44'0 0.0
2017-Aug-15 07:00N 58°58' E 005°44'0 0.0
2017-Aug-15 06:30N 58°58' E 005°44'0 0.0
2017-Aug-15 06:00N 58°58' E 005°44'0 0.0
2017-Aug-15 05:30N 58°59' E 005°44'0 0.5
2017-Aug-15 05:00N 58°59' E 005°43'4 8.1
2017-Aug-15 04:30N 59°02' E 005°38'4 8.5
2017-Aug-15 04:00N 58°58' E 005°33'714.0
2017-Aug-15 03:30N 58°51' E 005°31'4 8.3
2017-Aug-15 03:00N 58°49' E 005°25'611.3
2017-Aug-15 02:30N 58°44' E 005°19'612.7
2017-Aug-15 02:00N 58°38' E 005°15'713.2
2017-Aug-15 01:30N 58°31' E 005°12'713.2
2017-Aug-15 01:00N 58°25' E 005°08'713.6
2017-Aug-15 00:30N 58°19' E 005°04'15213.2
2017-Aug-14 13:00N 55°48' E 004°24'10214.6 160 / 201019.510.8 19.011.817.0
2017-Aug-14 06:00N 54°06' E 004°36'2912.7 150 / 241021.6 5.4 17.011.518.0
2017-Aug-14 03:42N 53°38' E 004°48'313.5
2017-Aug-14 03:30N 53°35' E 004°48'714.1
2017-Aug-14 03:00N 53°29' E 004°43'714.1
2017-Aug-14 02:30N 53°22' E 004°39'714.1
2017-Aug-14 02:00N 53°16' E 004°34'714.2
2017-Aug-14 01:30N 53°09' E 004°29'714.1
2017-Aug-14 01:00N 53°03' E 004°24'  

Dump ship's entire track history